Time;durP1;ratioP1;P1;durP2;ratioP2;P2;SDS_P1;SDS_P2;PMS_P1;PMS_P2;Temp;Humidity;BMP_temperature;BMP_pressure;BME280_temperature;BME280_humidity;BME280_pressure;Samples;Min_cycle;Max_cycle;Signal;HPM_P1;HPM_P2
2022/06/08 00:01:02;;;;;;;2.70;2.20;;;15.10;31.50;;;;;;7367828;19;20010;-60
2022/06/08 00:03:39;;;;;;;3.85;2.05;;;15.10;31.50;;;;;;7361439;19;20549;-61
2022/06/08 00:06:09;;;;;;;2.53;2.30;;;15.10;32.60;;;;;;7388903;19;20010;-61
2022/06/08 00:08:39;;;;;;;4.05;2.47;;;15.10;31.40;;;;;;7369334;19;20696;-61
2022/06/08 00:11:09;;;;;;;2.95;2.00;;;15.10;32.10;;;;;;7368446;19;20010;-61
2022/06/08 00:13:42;;;;;;;2.55;2.10;;;15.10;31.20;;;;;;7361743;19;20110;-61
2022/06/08 00:16:15;;;;;;;2.83;2.15;;;15.10;31.70;;;;;;7367428;19;20010;-61
2022/06/08 00:18:46;;;;;;;2.72;2.00;;;15.10;31.00;;;;;;7369071;19;20014;-61
2022/06/08 00:21:17;;;;;;;4.97;2.50;;;15.10;31.20;;;;;;7368721;19;20026;-61
2022/06/08 00:23:48;;;;;;;2.58;2.00;;;15.10;30.80;;;;;;7382744;19;20081;-61
2022/06/08 00:26:19;;;;;;;3.08;1.83;;;15.10;29.90;;;;;;7366234;19;20407;-61
2022/06/08 00:28:49;;;;;;;2.50;2.30;;;15.10;29.70;;;;;;7367193;19;20015;-61
2022/06/08 00:31:22;;;;;;;2.92;2.20;;;15.20;29.20;;;;;;7366569;19;20507;-61
2022/06/08 00:33:53;;;;;;;5.50;2.30;;;15.20;29.20;;;;;;7361407;19;20090;-61
2022/06/08 00:36:22;;;;;;;2.67;2.00;;;15.20;28.00;;;;;;7366236;19;20039;-61
2022/06/08 00:38:52;;;;;;;2.63;2.10;;;15.20;27.90;;;;;;7389840;19;20780;-61
2022/06/08 00:41:41;;;;;;;3.90;2.33;;;15.40;27.30;;;;;;7367725;19;20014;-61
2022/06/08 00:44:15;;;;;;;4.18;2.10;;;15.60;24.70;;;;;;7359730;19;20006;-61
2022/06/08 00:46:48;;;;;;;;;;;15.50;24.00;;;;;;7366847;19;20006;-60
2022/06/08 00:49:24;;;;;;;3.28;2.25;;;15.40;24.20;;;;;;7367517;19;19958;-60
2022/06/08 00:51:54;;;;;;;2.65;1.83;;;15.40;25.20;;;;;;7366710;19;20097;-60
2022/06/08 00:54:28;;;;;;;3.08;2.00;;;15.30;25.70;;;;;;7365196;19;20482;-60
2022/06/08 00:57:03;;;;;;;2.63;2.08;;;15.20;25.30;;;;;;7386537;19;20090;-60
2022/06/08 00:59:33;;;;;;;3.67;2.35;;;15.30;25.00;;;;;;7367144;19;20082;-60
2022/06/08 01:02:06;;;;;;;4.90;2.00;;;15.20;25.60;;;;;;7363372;19;20049;-60
2022/06/08 01:04:36;;;;;;;3.42;1.92;;;15.20;24.90;;;;;;7362843;19;20026;-60
2022/06/08 01:07:07;;;;;;;3.72;2.05;;;15.30;24.10;;;;;;7366920;19;20010;-61
2022/06/08 01:09:40;;;;;;;4.60;2.10;;;15.30;24.20;;;;;;7366928;19;20343;-61
2022/06/08 01:12:14;;;;;;;3.17;1.83;;;15.20;24.60;;;;;;7384158;19;20014;-67
2022/06/08 01:14:45;;;;;;;3.65;2.10;;;15.20;24.30;;;;;;7384260;19;20017;-61
2022/06/08 01:17:21;;;;;;;5.65;2.20;;;15.10;24.20;;;;;;7365589;19;20011;-61
2022/06/08 01:19:52;;;;;;;3.42;2.40;;;15.10;25.00;;;;;;7367452;19;20031;-61
2022/06/08 01:22:24;;;;;;;3.22;1.90;;;15.10;24.90;;;;;;7363571;19;20010;-61
2022/06/08 01:24:55;;;;;;;2.33;2.13;;;15.10;24.40;;;;;;7361609;19;20010;-62
2022/06/08 01:27:34;;;;;;;4.07;2.42;;;15.10;24.40;;;;;;7365566;19;20003;-60
2022/06/08 01:30:18;;;;;;;2.67;2.03;;;15.00;25.00;;;;;;7386665;19;20015;-60
2022/06/08 01:33:22;;;;;;;3.25;2.13;;;14.90;24.80;;;;;;7362800;19;20029;-60
2022/06/08 01:36:03;;;;;;;4.55;1.98;;;14.90;25.40;;;;;;7364466;19;20006;-60
2022/06/08 01:38:47;;;;;;;5.10;2.10;;;14.80;25.40;;;;;;7365655;19;20044;-61
2022/06/08 01:41:32;;;;;;;3.60;2.15;;;14.70;26.30;;;;;;7365490;19;20018;-61
2022/06/08 01:44:14;;;;;;;3.25;2.55;;;14.70;25.90;;;;;;7354401;19;20015;-61
2022/06/08 01:46:56;;;;;;;2.60;2.28;;;14.60;27.00;;;;;;7364993;19;20408;-61
2022/06/08 01:49:35;;;;;;;4.18;2.00;;;14.60;27.50;;;;;;7365908;19;20017;-61
2022/06/08 01:52:16;;;;;;;3.83;2.38;;;14.50;28.50;;;;;;7362851;19;20180;-61
2022/06/08 01:55:02;;;;;;;5.05;2.63;;;14.30;29.80;;;;;;7359660;19;20128;-61
2022/06/08 01:57:47;;;;;;;2.75;2.42;;;14.30;31.00;;;;;;7365541;19;20018;-60
2022/06/08 02:00:22;;;;;;;3.35;2.13;;;14.30;30.40;;;;;;7366485;19;20010;-60
2022/06/08 02:03:00;;;;;;;4.22;2.30;;;14.20;30.60;;;;;;7382199;19;20010;-60
2022/06/08 02:05:40;;;;;;;4.25;2.60;;;14.20;30.80;;;;;;7363925;19;20007;-60
2022/06/08 02:08:17;;;;;;;3.88;2.47;;;14.20;29.90;;;;;;7364683;19;20493;-60
2022/06/08 02:10:55;;;;;;;2.90;2.40;;;14.20;29.00;;;;;;7364782;19;20054;-60
2022/06/08 02:13:33;;;;;;;2.92;2.17;;;14.30;28.40;;;;;;7358921;19;20027;-60
2022/06/08 02:16:10;;;;;;;3.92;2.45;;;14.30;28.40;;;;;;7362580;19;20010;-60
2022/06/08 02:18:46;;;;;;;4.35;2.30;;;14.30;28.40;;;;;;7366102;19;20014;-60
2022/06/08 02:21:20;;;;;;;5.20;2.58;;;14.30;28.30;;;;;;7366875;19;20340;-61
2022/06/08 02:23:53;;;;;;;4.80;2.20;;;14.40;27.70;;;;;;7379708;19;20108;-60
2022/06/08 02:26:30;;;;;;;3.45;2.25;;;14.50;26.20;;;;;;7362151;19;20018;-60
2022/06/08 02:29:04;;;;;;;3.35;2.28;;;14.40;26.40;;;;;;7365101;19;20003;-60
2022/06/08 02:31:40;;;;;;;4.80;2.70;;;14.40;26.80;;;;;;7364430;19;20035;-60
2022/06/08 02:37:03;;;;;;;2.67;2.28;;;14.30;27.10;;;;;;7361011;19;20015;-61
2022/06/08 02:39:36;;;;;;;4.65;2.10;;;14.20;27.90;;;;;;7364401;19;20018;-60
2022/06/08 02:42:15;;;;;;;5.35;2.42;;;14.20;28.30;;;;;;7383517;19;20486;-60
2022/06/08 02:44:47;;;;;;;2.97;2.38;;;14.30;27.80;;;;;;7357537;19;20467;-60
2022/06/08 02:47:29;;;;;;;5.60;2.25;;;14.30;27.30;;;;;;7362780;19;20052;-60
2022/06/08 02:50:01;;;;;;;4.25;2.55;;;14.30;27.60;;;;;;7360013;19;20017;-60
2022/06/08 02:52:32;;;;;;;5.32;2.75;;;14.20;27.80;;;;;;7359963;19;20044;-60
2022/06/08 02:55:02;;;;;;;3.90;2.58;;;14.20;27.70;;;;;;7360855;19;20077;-60
2022/06/08 02:57:41;;;;;;;2.90;2.42;;;14.20;28.00;;;;;;7369949;19;20018;-60
2022/06/08 03:00:15;;;;;;;4.53;2.60;;;14.20;28.30;;;;;;7382557;19;20014;-62
2022/06/08 03:02:49;;;;;;;4.53;2.90;;;14.20;28.10;;;;;;7390313;19;20014;-60
2022/06/08 03:05:24;;;;;;;4.30;2.67;;;14.20;27.60;;;;;;7367145;19;20090;-61
2022/06/08 03:07:56;;;;;;;;;;;14.20;27.90;;;;;;7371585;19;20040;-61
2022/06/08 03:10:29;;;;;;;4.78;2.60;;;14.20;27.70;;;;;;7370933;19;19927;-60
2022/06/08 03:13:08;;;;;;;3.45;2.30;;;14.20;28.50;;;;;;7362536;19;20023;-60
2022/06/08 03:15:39;;;;;;;3.70;2.58;;;14.10;28.30;;;;;;7368616;19;20101;-60
2022/06/08 03:18:10;;;;;;;3.47;2.35;;;14.10;27.70;;;;;;7390215;19;20593;-60
2022/06/08 03:20:39;;;;;;;2.55;2.35;;;14.20;28.10;;;;;;7369968;19;20014;-60
2022/06/08 03:23:09;;;;;;;5.50;2.53;;;14.20;28.50;;;;;;7361382;19;20006;-60
2022/06/08 03:25:40;;;;;;;4.68;2.63;;;14.10;29.40;;;;;;7366475;19;20019;-61
2022/06/08 03:28:14;;;;;;;3.72;2.85;;;14.10;30.80;;;;;;7368672;19;20076;-61
2022/06/08 03:30:45;;;;;;;4.13;2.50;;;14.10;29.90;;;;;;7368464;19;20023;-61
2022/06/08 03:33:17;;;;;;;5.78;2.70;;;14.20;30.90;;;;;;7362193;19;20019;-61
2022/06/08 03:35:47;;;;;;;3.78;2.60;;;14.10;30.00;;;;;;7388493;19;20014;-61
2022/06/08 03:38:17;;;;;;;4.90;2.65;;;14.10;31.20;;;;;;7367854;19;20009;-60
2022/06/08 03:40:47;;;;;;;6.10;3.10;;;14.10;30.00;;;;;;7369058;19;20010;-60
2022/06/08 03:43:19;;;;;;;4.97;2.35;;;14.20;27.90;;;;;;7360792;19;20095;-60
2022/06/08 03:45:55;;;;;;;7.53;3.05;;;14.90;24.90;;;;;;7365821;19;20352;-59
2022/06/08 03:48:26;;;;;;;3.90;2.70;;;15.60;18.90;;;;;;7368968;19;20019;-61
2022/06/08 03:50:58;;;;;;;3.35;2.53;;;16.20;12.70;;;;;;7390267;19;20018;-61
2022/06/08 03:53:32;;;;;;;5.63;2.70;;;16.60;6.70;;;;;;7361492;19;20107;-60
2022/06/08 03:56:04;;;;;;;;;;;16.90;3.10;;;;;;7365529;19;20386;-60
2022/06/08 03:58:37;;;;;;;4.53;2.97;;;17.00;2.10;;;;;;7368312;19;20297;-61
2022/06/08 04:01:07;;;;;;;11.20;3.42;;;17.40;1.60;;;;;;7369339;19;20085;-61
2022/06/08 04:03:37;;;;;;;6.25;2.65;;;17.40;1.00;;;;;;7361215;19;20018;-61
2022/06/08 04:06:07;;;;;;;2.85;2.20;;;18.00;1.00;;;;;;7385044;19;20086;-61
2022/06/08 04:08:38;;;;;;;4.93;2.50;;;18.90;1.00;;;;;;7367541;19;20475;-60
2022/06/08 04:11:08;;;;;;;4.65;2.42;;;18.70;1.00;;;;;;7365937;19;20090;-60
2022/06/08 04:13:41;;;;;;;4.07;2.10;;;19.20;1.00;;;;;;7361194;19;20023;-61
2022/06/08 04:16:10;;;;;;;2.85;2.17;;;19.00;1.00;;;;;;7366384;19;20078;-61
2022/06/08 04:18:40;;;;;;;5.07;2.65;;;19.30;1.00;;;;;;7367901;19;20006;-62
2022/06/08 04:21:12;;;;;;;4.68;2.08;;;19.50;1.00;;;;;;7383351;19;20492;-64
2022/06/08 04:23:45;;;;;;;4.13;2.30;;;19.40;1.00;;;;;;7381758;19;20113;-61
2022/06/08 04:26:17;;;;;;;4.55;2.10;;;18.90;1.00;;;;;;7365025;19;20470;-60
2022/06/08 04:28:49;;;;;;;4.22;2.25;;;19.20;1.00;;;;;;7366708;19;20018;-61
2022/06/08 04:31:20;;;;;;;4.50;2.20;;;18.40;1.00;;;;;;7366345;19;20021;-61
2022/06/08 04:33:53;;;;;;;3.97;2.45;;;19.10;1.00;;;;;;7358846;19;20011;-61
2022/06/08 04:36:23;;;;;;;3.53;2.15;;;19.50;1.00;;;;;;7364150;19;20420;-61
2022/06/08 04:38:53;;;;;;;2.63;2.13;;;20.00;1.00;;;;;;7389283;19;20028;-61
2022/06/08 04:41:24;;;;;;;4.30;1.98;;;19.70;1.00;;;;;;7365404;19;20147;-61
2022/06/08 04:43:56;;;;;;;2.92;2.00;;;19.20;1.00;;;;;;7358500;19;20049;-61
2022/06/08 04:46:26;;;;;;;3.60;2.35;;;19.10;1.00;;;;;;7365135;19;20474;-61
2022/06/08 04:48:56;;;;;;;3.65;1.95;;;18.60;1.00;;;;;;7367187;19;20006;-61
2022/06/08 04:51:27;;;;;;;2.47;2.00;;;18.20;1.00;;;;;;7366248;19;20086;-61
2022/06/08 04:53:57;;;;;;;3.88;2.17;;;17.80;1.00;;;;;;7380490;19;20403;-61
2022/06/08 04:56:26;;;;;;;3.15;2.00;;;17.30;1.00;;;;;;7363305;19;20085;-61
2022/06/08 04:58:59;;;;;;;4.82;2.00;;;17.10;1.00;;;;;;7366285;19;20018;-61
2022/06/08 05:01:29;;;;;;;4.45;2.20;;;17.00;1.00;;;;;;7367167;19;20014;-61
2022/06/08 05:03:59;;;;;;;6.15;2.22;;;17.40;1.00;;;;;;7358264;19;20011;-61
2022/06/08 05:06:29;;;;;;;4.10;2.10;;;17.30;1.00;;;;;;7364147;19;20077;-61
2022/06/08 05:08:59;;;;;;;4.00;2.20;;;17.20;1.00;;;;;;7387659;19;20014;-60
2022/06/08 05:11:29;;;;;;;7.40;2.30;;;18.00;1.00;;;;;;7365433;19;20118;-61
2022/06/08 05:14:02;;;;;;;3.75;2.17;;;18.10;1.00;;;;;;7357548;19;20011;-60
2022/06/08 05:16:32;;;;;;;4.60;2.58;;;18.40;1.00;;;;;;7365244;19;20007;-61
2022/06/08 05:19:02;;;;;;;5.88;2.00;;;18.50;1.00;;;;;;7362981;19;20078;-61
2022/06/08 05:21:31;;;;;;;4.50;2.08;;;19.70;1.00;;;;;;7365388;19;20082;-61
2022/06/08 05:24:08;;;;;;;6.40;2.33;;;20.40;1.00;;;;;;7379485;19;20375;-60
2022/06/08 05:26:40;;;;;;;6.65;2.15;;;20.60;1.00;;;;;;7361992;19;20054;-60
2022/06/08 05:29:13;;;;;;;3.15;1.92;;;21.90;1.00;;;;;;7365960;19;20015;-61
2022/06/08 05:31:42;;;;;;;5.95;2.55;;;20.90;1.00;;;;;;7366288;19;20002;-61
2022/06/08 05:34:12;;;;;;;6.88;2.75;;;20.70;1.00;;;;;;7358615;19;20015;-61
2022/06/08 05:36:42;;;;;;;4.40;1.88;;;21.00;1.00;;;;;;7362496;19;20501;-61
2022/06/08 05:39:12;;;;;;;3.28;1.80;;;21.20;1.00;;;;;;7364893;19;20018;-62
2022/06/08 05:41:42;;;;;;;6.13;1.88;;;21.40;1.00;;;;;;7383762;19;20022;-60
2022/06/08 05:44:15;;;;;;;6.13;2.00;;;21.50;1.00;;;;;;7357666;19;20006;-61
2022/06/08 05:46:45;;;;;;;5.20;1.85;;;21.40;1.00;;;;;;7363543;19;20115;-61
2022/06/08 05:49:15;;;;;;;3.05;1.75;;;21.50;1.00;;;;;;7364308;19;20136;-61
2022/06/08 05:51:51;;;;;;;4.55;1.50;;;21.80;1.00;;;;;;7364695;19;20561;-62
2022/06/08 05:54:20;;;;;;;4.57;1.58;;;21.40;1.00;;;;;;7358696;19;20031;-60
2022/06/08 05:56:50;;;;;;;6.20;1.50;;;22.20;1.00;;;;;;7383826;19;20014;-60
2022/06/08 05:59:23;;;;;;;4.45;1.98;;;21.70;1.00;;;;;;7365318;19;20033;-61
2022/06/08 06:01:53;;;;;;;4.20;1.55;;;22.00;1.00;;;;;;7362732;19;20485;-61
2022/06/08 06:04:24;;;;;;;5.97;1.40;;;21.20;1.00;;;;;;7361192;19;20010;-61
2022/06/08 06:06:54;;;;;;;3.35;1.60;;;20.50;1.00;;;;;;7364843;19;20617;-61
2022/06/08 06:09:24;;;;;;;4.43;1.50;;;20.10;1.00;;;;;;7365523;19;20088;-61
2022/06/08 06:11:54;;;;;;;3.28;1.40;;;20.40;1.00;;;;;;7384031;19;20482;-61
2022/06/08 06:14:26;;;;;;;3.80;1.58;;;20.60;1.00;;;;;;7361765;19;20051;-61
2022/06/08 06:16:56;;;;;;;1.98;1.33;;;20.50;1.00;;;;;;7363641;19;20010;-61
2022/06/08 06:19:26;;;;;;;5.30;1.52;;;20.50;1.00;;;;;;7364876;19;20353;-60
2022/06/08 06:21:56;;;;;;;4.85;1.42;;;20.20;1.00;;;;;;7362460;19;20566;-61
2022/06/08 06:24:26;;;;;;;3.22;1.33;;;20.10;1.00;;;;;;7359531;19;20032;-60
2022/06/08 06:26:56;;;;;;;3.38;1.63;;;20.20;1.00;;;;;;7383049;19;20006;-61
2022/06/08 06:29:29;;;;;;;7.47;1.23;;;20.80;1.00;;;;;;7365995;19;20374;-60
2022/06/08 06:32:03;;;;;;;4.10;1.52;;;20.20;1.00;;;;;;7367891;19;20033;-61
2022/06/08 06:34:33;;;;;;;6.18;1.70;;;20.70;1.00;;;;;;7366022;19;20014;-60
2022/06/08 06:37:03;;;;;;;3.03;1.60;;;20.50;1.00;;;;;;7368041;19;20010;-60
2022/06/08 06:39:33;;;;;;;3.42;1.38;;;20.80;1.00;;;;;;7371449;19;20051;-60
2022/06/08 06:42:03;;;;;;;3.83;1.58;;;20.40;1.00;;;;;;7390383;19;20044;-61
2022/06/08 06:44:36;;;;;;;5.05;1.45;;;21.10;1.00;;;;;;7365975;19;20597;-61
2022/06/08 06:47:06;;;;;;;3.88;1.27;;;21.10;1.00;;;;;;7369428;19;20045;-60
2022/06/08 06:49:36;;;;;;;2.10;1.15;;;21.20;1.00;;;;;;7371556;19;20018;-60
2022/06/08 06:52:07;;;;;;;3.33;1.58;;;21.30;1.00;;;;;;7368226;19;20010;-60
2022/06/08 06:54:37;;;;;;;6.07;1.80;;;21.00;1.00;;;;;;7367922;19;20021;-61
2022/06/08 06:57:08;;;;;;;6.25;1.40;;;20.90;1.00;;;;;;7389132;19;20017;-61
2022/06/08 06:59:41;;;;;;;5.47;1.90;;;20.70;1.00;;;;;;7370675;19;20030;-61
2022/06/08 07:02:14;;;;;;;5.53;1.35;;;21.10;1.00;;;;;;7368315;19;20047;-61
2022/06/08 07:04:44;;;;;;;3.05;1.13;;;21.00;1.00;;;;;;7367762;19;20017;-61
2022/06/08 07:07:14;;;;;;;4.63;1.30;;;21.20;1.00;;;;;;7367870;19;20006;-61
2022/06/08 07:09:45;;;;;;;3.17;1.10;;;21.30;1.00;;;;;;7371760;19;20064;-61
2022/06/08 07:12:16;;;;;;;3.47;1.30;;;20.80;1.00;;;;;;7367187;19;20047;-61
2022/06/08 07:14:48;;;;;;;4.10;1.38;;;21.20;1.00;;;;;;7388067;19;20015;-61
2022/06/08 07:17:18;;;;;;;3.95;1.67;;;21.30;1.00;;;;;;7368697;19;20014;-61
2022/06/08 07:19:48;;;;;;;2.58;1.33;;;21.30;1.00;;;;;;7371154;19;20448;-61
2022/06/08 07:22:18;;;;;;;4.00;1.30;;;21.20;1.00;;;;;;7368205;19;20013;-61
2022/06/08 07:24:48;;;;;;;2.88;1.27;;;21.50;1.00;;;;;;7365447;19;20078;-59
2022/06/08 07:27:18;;;;;;;3.40;1.50;;;21.40;1.00;;;;;;7366723;19;20010;-61
2022/06/08 07:29:51;;;;;;;4.47;2.33;;;21.00;1.00;;;;;;7391925;19;20062;-61
2022/06/08 07:32:26;;;;;;;17.80;10.27;;;21.40;1.00;;;;;;7367176;19;20014;-60
2022/06/08 07:34:56;;;;;;;7.88;1.48;;;21.10;1.00;;;;;;7363726;19;20032;-60
2022/06/08 07:37:26;;;;;;;4.43;1.35;;;21.20;1.00;;;;;;7368352;19;20066;-61
2022/06/08 07:39:57;;;;;;;3.80;1.63;;;21.50;1.00;;;;;;7370338;19;20006;-61
2022/06/08 07:42:26;;;;;;;6.15;1.80;;;21.30;1.00;;;;;;7367789;19;20044;-62
2022/06/08 07:45:01;;;;;;;4.07;1.40;;;21.10;1.00;;;;;;7383539;19;20018;-61
2022/06/08 07:47:31;;;;;;;6.10;1.73;;;20.90;1.00;;;;;;7367689;19;20082;-60
2022/06/08 07:49:59;;;;;;;3.90;1.23;;;21.50;1.00;;;;;;7369010;19;20010;-61
2022/06/08 07:52:28;;;;;;;5.07;1.60;;;21.80;1.00;;;;;;7366391;19;20381;-60
2022/06/08 07:54:58;;;;;;;4.60;1.30;;;21.80;1.00;;;;;;7362190;19;20015;-61
2022/06/08 07:57:32;;;;;;;4.63;1.90;;;21.80;1.00;;;;;;7366034;19;20037;-61
2022/06/08 08:00:06;;;;;;;2.33;1.40;;;21.60;1.00;;;;;;7391134;19;20013;-61
2022/06/08 08:02:36;;;;;;;5.57;1.42;;;21.60;1.00;;;;;;7366313;19;20003;-60
2022/06/08 08:05:09;;;;;;;3.13;1.23;;;21.70;1.00;;;;;;7362284;19;20593;-60
2022/06/08 08:07:39;;;;;;;3.67;1.50;;;21.80;1.00;;;;;;7368929;19;20007;-62
2022/06/08 08:10:14;;;;;;;4.43;1.30;;;22.00;1.00;;;;;;7370792;19;20017;-61
2022/06/08 08:12:44;;;;;;;3.30;1.35;;;22.20;1.00;;;;;;7372222;19;20021;-60
2022/06/08 08:15:18;;;;;;;2.58;1.10;;;22.10;1.00;;;;;;7372258;19;20018;-62
2022/06/08 08:17:48;;;;;;;4.28;1.30;;;22.20;1.00;;;;;;7393638;19;20043;-61
2022/06/08 08:20:19;;;;;;;3.75;1.50;;;22.10;1.00;;;;;;7371624;19;20013;-61
2022/06/08 08:22:50;;;;;;;7.68;1.50;;;22.20;1.00;;;;;;7371427;19;20355;-60
2022/06/08 08:25:21;;;;;;;7.18;1.60;;;22.10;1.00;;;;;;7370124;19;20017;-61
2022/06/08 08:27:53;;;;;;;3.72;1.15;;;21.80;1.00;;;;;;7371298;19;20007;-61
2022/06/08 08:30:29;;;;;;;4.63;1.67;;;21.80;1.00;;;;;;7371983;19;20185;-61
2022/06/08 08:32:59;;;;;;;5.57;2.45;;;22.00;1.00;;;;;;7393841;19;20023;-61
2022/06/08 08:35:30;;;;;;;4.30;1.92;;;22.00;1.00;;;;;;7369889;19;20691;-61
2022/06/08 08:38:00;;;;;;;3.20;1.15;;;22.30;1.00;;;;;;7371483;19;20019;-61
2022/06/08 08:40:47;;;;;;;3.97;1.08;;;22.60;1.00;;;;;;7372522;19;20031;-61
2022/06/08 08:43:20;;;;;;;3.08;1.13;;;22.80;1.00;;;;;;7371926;19;20030;-61
2022/06/08 08:46:07;;;;;;;5.65;1.27;;;23.00;1.00;;;;;;7369719;19;20015;-61
2022/06/08 08:48:47;;;;;;;2.80;1.33;;;22.50;1.00;;;;;;7370304;19;20676;-62
2022/06/08 08:51:24;;;;;;;4.15;0.95;;;22.90;1.00;;;;;;7370849;19;20014;-62
2022/06/08 08:54:06;;;;;;;5.53;1.15;;;23.10;1.00;;;;;;7391018;19;20377;-62
2022/06/08 08:56:39;;;;;;;3.03;1.10;;;22.90;1.00;;;;;;7368535;19;20013;-62
2022/06/08 08:59:16;;;;;;;5.60;1.20;;;23.40;1.00;;;;;;7370721;19;20363;-61
2022/06/08 09:01:52;;;;;;;6.22;1.25;;;23.20;1.00;;;;;;7371112;19;20016;-61
2022/06/08 09:04:31;;;;;;;4.35;1.23;;;22.80;1.00;;;;;;7370681;19;20039;-61
2022/06/08 09:07:07;;;;;;;2.42;1.08;;;22.90;1.00;;;;;;7369435;19;20047;-61
2022/06/08 09:09:37;;;;;;;1.83;1.15;;;22.40;1.00;;;;;;7370161;19;20010;-62
2022/06/08 09:12:13;;;;;;;2.53;1.60;;;22.40;1.00;;;;;;7393053;19;20022;-61
2022/06/08 09:15:01;;;;;;;5.68;1.38;;;22.90;1.00;;;;;;7368693;19;20074;-60
2022/06/08 09:17:40;;;;;;;3.03;1.30;;;23.30;1.00;;;;;;7369211;19;20011;-61
2022/06/08 09:20:27;;;;;;;2.83;1.08;;;23.10;1.00;;;;;;7369200;19;20048;-60
2022/06/08 09:23:00;;;;;;;3.40;1.05;;;23.60;1.00;;;;;;7367706;19;20006;-60
2022/06/08 09:25:33;;;;;;;5.38;1.60;;;23.30;1.00;;;;;;7367835;19;20015;-60
2022/06/08 09:28:05;;;;;;;3.50;1.10;;;23.80;1.00;;;;;;7368613;19;20011;-60
2022/06/08 09:30:49;;;;;;;4.57;1.95;;;23.90;1.00;;;;;;7369198;19;20256;-61
2022/06/08 09:33:26;;;;;;;;;;;24.10;1.00;;;;;;7370615;19;20462;-61
2022/06/08 09:35:59;;;;;;;2.92;1.02;;;23.60;1.00;;;;;;7389731;19;19914;-61
2022/06/08 09:38:31;;;;;;;4.32;1.38;;;23.70;1.00;;;;;;7368681;19;20369;-60
2022/06/08 09:41:06;;;;;;;4.22;1.58;;;24.10;1.00;;;;;;7367610;19;20021;-61
2022/06/08 09:44:03;;;;;;;2.53;1.15;;;23.60;1.00;;;;;;7366880;19;20039;-62
2022/06/08 09:52:40;;;;;;;3.40;1.17;;;22.80;1.00;;;;;;7369112;19;20002;-61
2022/06/08 09:55:26;;;;;;;4.70;1.30;;;23.40;1.00;;;;;;7366597;19;20090;-61
2022/06/08 09:58:07;;;;;;;1.95;1.00;;;24.10;1.00;;;;;;7367873;19;20027;-61
2022/06/08 10:00:48;;;;;;;2.63;1.33;;;24.00;1.00;;;;;;7368913;19;20077;-61
2022/06/08 10:03:55;;;;;;;3.13;1.23;;;23.50;1.00;;;;;;7367337;19;20487;-62
2022/06/08 10:06:38;;;;;;;11.25;5.45;;;23.30;1.00;;;;;;7366342;19;20010;-61
2022/06/08 10:09:16;;;;;;;3.20;1.20;;;23.60;1.00;;;;;;7390314;19;20087;-61
2022/06/08 10:11:53;;;;;;;4.07;1.10;;;23.50;1.00;;;;;;7368607;19;20021;-61
2022/06/08 10:14:31;;;;;;;3.72;1.33;;;23.20;1.00;;;;;;7367246;19;20014;-61
2022/06/08 10:17:09;;;;;;;3.25;0.98;;;23.30;1.00;;;;;;7366211;19;20082;-61
2022/06/08 10:19:47;;;;;;;3.85;2.40;;;22.50;1.00;;;;;;7367177;19;20014;-61
2022/06/08 10:22:21;;;;;;;4.93;1.48;;;22.80;1.00;;;;;;7367649;19;20483;-61
2022/06/08 10:24:58;;;;;;;4.93;1.40;;;22.80;1.00;;;;;;7369203;19;20561;-61
2022/06/08 10:27:35;;;;;;;4.45;1.80;;;23.00;1.00;;;;;;7366351;19;20082;-61
2022/06/08 10:30:16;;;;;;;5.25;1.77;;;22.80;1.00;;;;;;7390379;19;20486;-61
2022/06/08 10:32:50;;;;;;;4.65;1.58;;;23.00;1.00;;;;;;7368601;19;20032;-62
2022/06/08 10:35:27;;;;;;;4.68;1.25;;;23.50;1.00;;;;;;7365368;19;20010;-61
2022/06/08 10:38:01;;;;;;;2.00;1.10;;;23.50;1.00;;;;;;7366583;19;20014;-62
2022/06/08 10:40:37;;;;;;;2.95;0.80;;;24.00;1.00;;;;;;7368112;19;20098;-60
2022/06/08 10:43:07;;;;;;;5.10;1.50;;;24.10;1.00;;;;;;7367458;19;20082;-61
2022/06/08 10:45:47;;;;;;;5.10;1.50;;;23.90;1.00;;;;;;7367500;19;20014;-61
2022/06/08 10:48:51;;;;;;;4.57;1.13;;;24.60;1.00;;;;;;7366453;19;20017;-62
2022/06/08 10:51:35;;;;;;;3.17;0.80;;;24.90;1.00;;;;;;7366107;19;20014;-61
2022/06/08 10:57:42;;;;;;;2.17;0.70;;;24.20;1.00;;;;;;7262119;19;2004206;-61
2022/06/08 11:00:58;;;;;;;1.85;0.90;;;25.20;1.00;;;;;;7374128;19;20407;-61
2022/06/08 11:03:51;;;;;;;2.33;0.90;;;25.50;1.00;;;;;;7365286;19;20015;-62
2022/06/08 11:07:01;;;;;;;2.17;0.70;;;25.50;1.00;;;;;;7365052;19;20043;-61
2022/06/08 11:09:51;;;;;;;1.95;0.70;;;25.20;1.00;;;;;;7366823;19;20016;-60
2022/06/08 11:12:34;;;;;;;1.83;0.60;;;25.20;1.00;;;;;;7366282;19;20484;-62
2022/06/08 11:15:11;;;;;;;2.92;0.68;;;25.10;1.00;;;;;;7388116;19;20018;-61
2022/06/08 11:17:52;;;;;;;2.30;1.02;;;25.10;1.00;;;;;;7373257;19;20479;-61
2022/06/08 11:20:25;;;;;;;2.97;1.00;;;25.60;1.00;;;;;;7373524;19;20021;-62
2022/06/08 11:23:01;;;;;;;3.17;0.80;;;25.90;1.00;;;;;;7372153;19;20014;-62
2022/06/08 11:25:37;;;;;;;2.83;1.00;;;25.70;1.00;;;;;;7371977;19;20011;-60
2022/06/08 11:28:29;;;;;;;2.15;0.80;;;25.90;1.00;;;;;;7373690;19;20081;-61
2022/06/08 11:31:01;;;;;;;2.00;0.80;;;24.50;1.00;;;;;;7373524;19;20478;-61
2022/06/08 11:34:02;;;;;;;2.95;0.70;;;25.00;1.00;;;;;;7373584;19;20019;-61
2022/06/08 11:36:49;;;;;;;4.97;0.80;;;24.70;1.00;;;;;;7370102;19;20004;-62
2022/06/08 11:39:27;;;;;;;1.23;0.75;;;23.90;1.00;;;;;;7373431;19;20019;-62
2022/06/08 11:42:22;;;;;;;2.35;1.20;;;24.40;1.00;;;;;;7394535;19;20074;-60
2022/06/08 11:44:58;;;;;;;4.28;1.00;;;25.50;1.00;;;;;;7373032;19;20010;-62
2022/06/08 11:47:33;;;;;;;2.10;0.73;;;25.70;1.00;;;;;;7370415;19;20015;-62
2022/06/08 11:50:06;;;;;;;17.17;1.23;;;25.70;1.00;;;;;;7372009;19;20009;-61
2022/06/08 11:52:40;;;;;;;1.38;0.70;;;24.90;1.00;;;;;;7373063;19;20010;-61
2022/06/08 11:55:19;;;;;;;4.32;1.25;;;24.60;1.00;;;;;;7371124;19;20009;-61
2022/06/08 11:58:10;;;;;;;2.38;0.82;;;24.40;1.00;;;;;;7371547;19;20478;-61
2022/06/08 12:00:57;;;;;;;3.13;1.20;;;24.60;1.00;;;;;;7372212;19;20019;-61
2022/06/08 12:03:31;;;;;;;2.88;0.85;;;24.70;1.00;;;;;;7371767;19;20724;-60
2022/06/08 12:06:08;;;;;;;2.95;1.02;;;24.40;1.00;;;;;;7391992;19;20018;-61
2022/06/08 12:08:42;;;;;;;1.60;0.88;;;24.50;1.00;;;;;;7373159;19;20019;-61
2022/06/08 12:11:24;;;;;;;3.95;1.05;;;24.30;1.00;;;;;;7370139;19;20415;-62
2022/06/08 12:14:01;;;;;;;;;;;24.50;1.00;;;;;;7371440;19;20003;-61
2022/06/08 12:16:39;;;;;;;5.18;1.23;;;24.00;1.00;;;;;;7369671;19;19997;-61
2022/06/08 12:19:17;;;;;;;1.60;0.90;;;24.00;1.00;;;;;;7371815;19;20022;-62
2022/06/08 12:21:49;;;;;;;1.98;0.68;;;24.40;1.00;;;;;;7372941;19;20006;-60
2022/06/08 12:24:26;;;;;;;3.08;0.90;;;24.50;1.00;;;;;;7373040;19;20028;-60
2022/06/08 12:27:15;;;;;;;2.95;1.05;;;24.60;1.00;;;;;;7389960;19;20011;-61
2022/06/08 12:29:56;;;;;;;2.28;1.00;;;24.90;1.00;;;;;;7371631;19;20026;-61
2022/06/08 12:32:34;;;;;;;2.35;0.90;;;25.70;1.00;;;;;;7372152;19;20105;-60
2022/06/08 12:35:34;;;;;;;2.70;0.77;;;25.40;1.00;;;;;;7370764;19;20546;-61
2022/06/08 12:38:26;;;;;;;3.13;1.30;;;25.80;1.00;;;;;;7367623;19;20050;-61
2022/06/08 12:41:09;;;;;;;2.92;1.10;;;24.60;1.00;;;;;;7370373;19;20087;-61
2022/06/08 12:43:49;;;;;;;3.10;1.10;;;23.90;1.00;;;;;;7369823;19;20027;-61
2022/06/08 12:46:35;;;;;;;3.17;0.70;;;23.70;1.00;;;;;;7370923;19;20007;-61
2022/06/08 12:49:18;;;;;;;2.83;0.90;;;24.20;1.00;;;;;;7369731;19;20122;-60
2022/06/08 12:51:57;;;;;;;1.45;0.82;;;25.20;1.00;;;;;;7368473;19;20478;-62
2022/06/08 12:54:30;;;;;;;1.55;0.80;;;25.20;1.00;;;;;;7368778;19;20354;-61
2022/06/08 12:57:14;;;;;;;3.55;1.42;;;25.30;1.00;;;;;;7386807;19;20401;-61
2022/06/08 12:59:44;;;;;;;3.20;1.08;;;25.60;1.00;;;;;;7368209;19;20015;-61
2022/06/08 13:02:19;;;;;;;2.38;0.90;;;25.80;1.00;;;;;;7370628;19;20077;-61
2022/06/08 13:04:50;;;;;;;4.75;0.90;;;25.50;1.00;;;;;;7369403;19;20011;-62
2022/06/08 13:07:34;;;;;;;;;;;25.60;1.00;;;;;;7369781;19;20119;-61
2022/06/08 13:10:05;;;;;;;2.35;0.93;;;25.00;1.00;;;;;;7369834;19;19918;-61
2022/06/08 13:12:40;;;;;;;2.92;1.20;;;24.90;1.00;;;;;;7369548;19;20010;-61
2022/06/08 13:15:18;;;;;;;2.33;0.82;;;25.30;1.00;;;;;;7389407;19;20019;-62
2022/06/08 13:17:50;;;;;;;2.55;0.77;;;25.50;1.00;;;;;;7368213;19;20043;-62
2022/06/08 13:20:25;;;;;;;2.20;0.90;;;25.10;1.00;;;;;;7368750;19;20111;-61
2022/06/08 13:22:55;;;;;;;1.52;0.68;;;25.50;1.00;;;;;;7368301;19;20114;-61
2022/06/08 13:25:36;;;;;;;1.45;0.60;;;26.20;1.00;;;;;;7367803;19;20087;-61
2022/06/08 13:28:14;;;;;;;4.65;1.92;;;25.40;1.00;;;;;;7368161;19;20110;-62
2022/06/08 13:30:46;;;;;;;2.85;1.13;;;25.40;1.00;;;;;;7368288;19;20010;-62
2022/06/08 13:36:09;;;;;;;2.97;0.93;;;25.50;1.00;;;;;;7387246;19;20014;-60
2022/06/08 13:38:38;;;;;;;1.98;0.80;;;25.30;1.00;;;;;;7368260;19;20018;-61
2022/06/08 13:41:08;;;;;;;9.57;0.90;;;25.00;1.00;;;;;;7367480;19;20098;-61
2022/06/08 13:43:39;;;;;;;3.75;0.85;;;25.00;1.00;;;;;;7368134;19;20018;-61
2022/06/08 13:46:17;;;;;;;2.53;1.30;;;24.80;1.00;;;;;;7367010;19;20023;-61
2022/06/08 13:48:53;;;;;;;1.35;0.70;;;24.70;1.00;;;;;;7367507;19;20406;-61
2022/06/08 13:51:23;;;;;;;2.15;0.85;;;24.90;1.00;;;;;;7365680;19;20019;-61